OSAP/ALP METAR and TAF weather

Enter ICAO airport designator
Station Type Date Time Source
OSAP METAR 2024/06/14 21:00 UTC NOAA

OSAP 142100Z 33006KT CAVOK 33/11 Q1009


Station Type Date Time Source
OSAP Decoded METAR 2024/06/14 21:00 UTC NOAA

Aleppo International Airport, Syria (OSAP) 36-11N 037-12E 384M
Jun 14, 2024 - 05:00 PM EDT / 2024.06.14 2100 UTC
Wind: from the NNW (330 degrees) at 7 MPH (6 KT):0
Visibility: greater than 7 mile(s):0
Temperature: 91 F (33 C)
Dew Point: 51 F (11 C)
Relative Humidity: 26%
Pressure (altimeter): 29.80 in. Hg (1009 hPa)
ob: OSAP 142100Z 33006KT CAVOK 33/11 Q1009
cycle: 21

Station Type Date Time Source
OSAP TAF 2024/06/14 18:59 UTC NOAA